createdAt,value
2022-11-16T00:01:06.098Z,94785.72
2022-11-16T00:04:12.589Z,94785.72
2022-11-16T00:07:15.771Z,94778.50
2022-11-16T00:10:21.454Z,94777.25
2022-11-16T00:13:24.705Z,94785.72
2022-11-16T00:16:27.733Z,94775.69
2022-11-16T00:19:32.546Z,94788.69
2022-11-16T00:22:36.005Z,94782.56
2022-11-16T00:25:39.063Z,94774.13
2022-11-16T00:28:42.154Z,94763.47
2022-11-16T00:31:45.930Z,94777.56
2022-11-16T00:34:50.471Z,94761.91
2022-11-16T00:37:53.690Z,94759.25
2022-11-16T00:40:56.775Z,94761.28
2022-11-16T00:43:59.789Z,94761.91
2022-11-16T00:47:02.961Z,94764.56
2022-11-16T00:50:08.134Z,94750.47
2022-11-16T00:53:14.601Z,94740.63
2022-11-16T00:56:17.968Z,94747.50
2022-11-16T00:59:21.216Z,94744.38
2022-11-16T01:02:24.861Z,94741.69
2022-11-16T01:05:29.287Z,94734.50
2022-11-16T01:08:32.929Z,94734.78
2022-11-16T01:11:53.638Z,94729.19
2022-11-16T01:14:57.191Z,94720.69
2022-11-16T01:18:00.433Z,94715.38
2022-11-16T01:21:07.618Z,94717.25
2022-11-16T01:24:10.884Z,94715.09
2022-11-16T01:27:14.024Z,94709.28
2022-11-16T01:30:17.450Z,94709.28
2022-11-16T01:33:20.567Z,94713.03
2022-11-16T01:36:25.059Z,94710.38
2022-11-16T01:39:28.376Z,94712.72
2022-11-16T01:42:33.617Z,94710.38
2022-11-16T01:45:41.219Z,94700.81
2022-11-16T01:48:44.568Z,94709.59
2022-11-16T01:51:52.829Z,94717.56
2022-11-16T01:54:56.690Z,94698.94
2022-11-16T01:58:00.610Z,94705.03
2022-11-16T02:01:03.848Z,94702.38
2022-11-16T02:04:07.373Z,94697.69
2022-11-16T02:07:23.267Z,94697.84
2022-11-16T02:10:41.175Z,94685.47
2022-11-16T02:13:53.859Z,94691.56
2022-11-16T02:17:13.615Z,94690.97
2022-11-16T02:20:45.622Z,94680.16
2022-11-16T02:24:07.363Z,94676.88
2022-11-16T02:27:47.439Z,94683.28
2022-11-16T02:30:55.369Z,94677.97
2022-11-16T02:34:00.890Z,94676.41
2022-11-16T02:37:08.339Z,94668.41
2022-11-16T02:40:17.064Z,94672.03
2022-11-16T02:43:26.552Z,94664.03
2022-11-16T02:46:39.396Z,94671.84
2022-11-16T02:49:48.606Z,94667.31
2022-11-16T02:52:51.794Z,94662.31
2022-11-16T02:55:57.186Z,94666.06
2022-11-16T02:59:01.067Z,94663.72
2022-11-16T03:02:18.665Z,94660.13
2022-11-16T03:05:32.284Z,94658.09
2022-11-16T03:08:39.509Z,94655.72
2022-11-16T03:12:03.714Z,94650.41
2022-11-16T03:15:11.270Z,94645.56
2022-11-16T03:18:18.116Z,94636.00
2022-11-16T03:21:30.190Z,94640.72
2022-11-16T03:24:33.712Z,94647.13
2022-11-16T03:27:39.988Z,94644.00
2022-11-16T03:30:47.002Z,94644.94
2022-11-16T03:33:56.118Z,94634.94
2022-11-16T03:37:01.620Z,94639.47
2022-11-16T03:40:07.553Z,94646.34
2022-11-16T03:43:11.539Z,94637.59
2022-11-16T03:46:16.658Z,94644.00
2022-11-16T03:49:24.210Z,94645.88
2022-11-16T03:52:27.303Z,94639.00
2022-11-16T03:55:30.367Z,94635.06
2022-11-16T03:58:33.707Z,94634.75
2022-11-16T04:01:41.769Z,94636.00
2022-11-16T04:05:06.462Z,94631.16
2022-11-16T04:08:33.603Z,94620.06
2022-11-16T04:11:55.034Z,94613.63
2022-11-16T04:15:15.770Z,94614.09
2022-11-16T04:18:36.525Z,94604.25
2022-11-16T04:22:02.362Z,94598.31
2022-11-16T04:25:11.646Z,94607.56
2022-11-16T04:28:16.306Z,94613.38
2022-11-16T04:31:45.536Z,94606.78
2022-11-16T04:35:06.161Z,94609.91
2022-11-16T04:38:10.680Z,94614.94
2022-11-16T04:41:29.083Z,94606.47
2022-11-16T04:44:49.143Z,94603.81
2022-11-16T04:47:53.240Z,94595.81
2022-11-16T04:50:56.406Z,94599.75
2022-11-16T04:54:01.221Z,94609.59
2022-11-16T04:57:04.609Z,94616.50
2022-11-16T05:00:09.326Z,94600.06
2022-11-16T05:03:12.454Z,94604.41
2022-11-16T05:06:15.769Z,94601.47
2022-11-16T05:09:20.353Z,94595.97
2022-11-16T05:12:27.275Z,94606.63
2022-11-16T05:15:30.370Z,94599.44
2022-11-16T05:18:34.779Z,94605.06
2022-11-16T05:21:37.118Z,94595.97
2022-11-16T05:24:41.635Z,94591.63
2022-11-16T05:27:44.782Z,94591.75
2022-11-16T05:30:47.916Z,94579.88
2022-11-16T05:33:50.938Z,94592.22
2022-11-16T05:36:54.650Z,94586.28
2022-11-16T05:39:59.088Z,94589.72
2022-11-16T05:43:02.411Z,94589.06
2022-11-16T05:46:05.566Z,94590.16
2022-11-16T05:49:09.392Z,94592.34
2022-11-16T05:52:12.693Z,94593.44
2022-11-16T05:55:17.394Z,94596.09
2022-11-16T05:58:20.681Z,94591.41
2022-11-16T06:01:23.928Z,94594.53
2022-11-16T06:04:27.614Z,94602.06
2022-11-16T06:07:30.869Z,94603.63
2022-11-16T06:10:35.435Z,94597.53
2022-11-16T06:13:38.888Z,94594.22
2022-11-16T06:16:42.197Z,94600.97
2022-11-16T06:19:45.255Z,94602.84
2022-11-16T06:22:48.876Z,94596.94
2022-11-16T06:25:56.053Z,94602.41
2022-11-16T06:29:00.310Z,94600.69
2022-11-16T06:32:03.380Z,94598.19
2022-11-16T06:35:07.349Z,94585.66
2022-11-16T06:38:11.244Z,94601.78
2022-11-16T06:41:15.687Z,94600.06
2022-11-16T06:44:18.712Z,94599.91
2022-11-16T06:47:21.760Z,94590.34
2022-11-16T06:50:25.244Z,94591.91
2022-11-16T06:53:30.701Z,94583.94
2022-11-16T06:56:36.550Z,94585.66
2022-11-16T06:59:39.592Z,94587.69
2022-11-16T07:02:42.684Z,94599.91
2022-11-16T07:05:45.788Z,94581.91
2022-11-16T07:08:48.913Z,94583.47
2022-11-16T07:11:53.420Z,94585.34
2022-11-16T07:14:56.609Z,94572.66
2022-11-16T07:18:04.914Z,94581.91
2022-11-16T07:21:08.436Z,94591.75
2022-11-16T07:24:12.211Z,94573.91
2022-11-16T07:27:16.685Z,94585.03
2022-11-16T07:30:20.074Z,94578.13
2022-11-16T07:33:23.505Z,94569.69
2022-11-16T07:36:26.564Z,94572.66
2022-11-16T07:39:29.917Z,94567.81
2022-11-16T07:42:34.455Z,94562.19
2022-11-16T07:45:37.463Z,94564.84
2022-11-16T07:48:42.660Z,94561.72
2022-11-16T07:51:46.373Z,94570.63
2022-11-16T07:54:49.422Z,94568.59
2022-11-16T07:57:54.117Z,94552.31
2022-11-16T08:01:05.045Z,94561.53
2022-11-16T08:04:08.131Z,94560.75
2022-11-16T08:07:11.568Z,94566.88
2022-11-16T08:10:14.892Z,94553.56
2022-11-16T08:13:19.330Z,94552.47
2022-11-16T08:16:23.726Z,94547.16
2022-11-16T08:19:26.748Z,94544.81
2022-11-16T08:22:30.435Z,94544.81
2022-11-16T08:25:33.489Z,94540.56
2022-11-16T08:28:38.828Z,94517.09
2022-11-16T08:31:41.906Z,94532.28
2022-11-16T08:34:45.147Z,94525.84
2022-11-16T08:37:49.213Z,94528.53
2022-11-16T08:40:52.303Z,94521.31
2022-11-16T08:43:57.137Z,94523.19
2022-11-16T08:47:00.267Z,94520.84
2022-11-16T08:50:03.609Z,94518.50
2022-11-16T08:53:06.699Z,94511.16
2022-11-16T08:56:11.897Z,94521.63
2022-11-16T08:59:18.673Z,94514.13
2022-11-16T09:02:25.840Z,94517.88
2022-11-16T09:05:29.212Z,94516.31
2022-11-16T09:08:32.857Z,94512.88
2022-11-16T09:11:36.221Z,94517.88
2022-11-16T09:14:40.690Z,94523.50
2022-11-16T09:17:43.972Z,94503.47
2022-11-16T09:20:47.135Z,94495.50
2022-11-16T09:23:50.982Z,94486.75
2022-11-16T09:26:56.822Z,94486.41
2022-11-16T09:30:01.276Z,94464.81
2022-11-16T09:33:04.441Z,94470.44
2022-11-16T09:36:10.133Z,94465.75
2022-11-16T09:39:30.165Z,94460.09
2022-11-16T09:42:52.388Z,94435.09
2022-11-16T09:46:06.743Z,94436.94
2022-11-16T09:49:17.547Z,94437.56
2022-11-16T09:52:30.379Z,94431.16
2022-11-16T09:55:38.358Z,94433.19
2022-11-16T09:58:47.304Z,94424.09
2022-11-16T10:01:57.577Z,94426.44
2022-11-16T10:05:05.369Z,94404.88
2022-11-16T10:08:15.921Z,94403.75
2022-11-16T10:11:44.133Z,94401.56
2022-11-16T10:15:23.660Z,94395.59
2022-11-16T10:18:49.832Z,94380.09
2022-11-16T10:22:02.163Z,94370.38
2022-11-16T10:25:13.490Z,94371.00
2022-11-16T10:28:37.210Z,94371.47
2022-11-16T10:32:09.628Z,94365.16
2022-11-16T10:35:20.026Z,94355.13
2022-11-16T10:38:26.253Z,94354.34
2022-11-16T10:41:34.573Z,94347.13
2022-11-16T10:44:42.064Z,94340.69
2022-11-16T10:47:50.836Z,94341.03
2022-11-16T10:50:56.063Z,94342.59
2022-11-16T10:53:59.307Z,94335.38
2022-11-16T10:57:06.314Z,94332.25
2022-11-16T11:00:21.061Z,94334.13
2022-11-16T11:03:32.665Z,94320.81
2022-11-16T11:06:40.231Z,94322.56
2022-11-16T11:09:44.392Z,94307.69
2022-11-16T11:13:03.900Z,94305.03
2022-11-16T11:16:19.088Z,94295.03
2022-11-16T11:19:27.940Z,94294.25
2022-11-16T11:22:33.725Z,94285.03
2022-11-16T11:25:41.231Z,94274.38
2022-11-16T11:28:51.104Z,94274.22
2022-11-16T11:31:59.244Z,94267.34
2022-11-16T11:35:03.672Z,94256.09
2022-11-16T11:38:08.664Z,94257.66
2022-11-16T11:41:20.241Z,94262.19
2022-11-16T11:44:37.490Z,94256.09
2022-11-16T11:47:58.434Z,94252.34
2022-11-16T11:51:12.175Z,94253.25
2022-11-16T11:54:24.228Z,94238.72
2022-11-16T11:57:27.388Z,94226.22
2022-11-16T12:00:40.783Z,94234.47
2022-11-16T12:03:59.212Z,94222.41
2022-11-16T12:07:13.707Z,94230.41
2022-11-16T12:10:28.949Z,94217.53
2022-11-16T12:13:57.982Z,94214.09
2022-11-16T12:17:08.615Z,94210.97
2022-11-16T12:20:29.620Z,94206.13
2022-11-16T12:23:58.808Z,94208.78
2022-11-16T12:27:15.711Z,94199.56
2022-11-16T12:30:21.310Z,94199.56
2022-11-16T12:33:35.251Z,94188.47
2022-11-16T12:36:49.116Z,94185.78
2022-11-16T12:40:09.758Z,94186.91
2022-11-16T12:43:22.675Z,94172.03
2022-11-16T12:46:38.628Z,94166.97
2022-11-16T12:50:05.882Z,94166.81
2022-11-16T12:53:25.627Z,94165.38
2022-11-16T12:56:47.470Z,94162.06
2022-11-16T13:00:07.925Z,94156.72
2022-11-16T13:03:19.085Z,94144.56
2022-11-16T13:06:27.886Z,94163.28
2022-11-16T13:09:34.230Z,94161.41
2022-11-16T13:12:39.274Z,94150.09
2022-11-16T13:15:46.429Z,94155.09
2022-11-16T13:18:50.157Z,94149.53
2022-11-16T13:21:59.936Z,94152.84
2022-11-16T13:25:15.946Z,94145.84
2022-11-16T13:28:30.619Z,94152.56
2022-11-16T13:31:45.002Z,94146.78
2022-11-16T13:34:48.888Z,94142.56
2022-11-16T13:37:52.873Z,94135.69
2022-11-16T13:41:29.177Z,94141.78
2022-11-16T13:44:32.710Z,94132.25
2022-11-16T13:47:38.928Z,94127.25
2022-11-16T13:50:49.939Z,94138.22
2022-11-16T13:57:25.383Z,94145.09
2022-11-16T14:00:33.452Z,94142.31
2022-11-16T14:03:42.275Z,94131.34
2022-11-16T14:07:00.606Z,94132.91
2022-11-16T14:10:07.970Z,94143.22
2022-11-16T14:13:39.712Z,94135.56
2022-11-16T14:16:51.225Z,94125.69
2022-11-16T14:19:57.448Z,94133.22
2022-11-16T14:23:22.471Z,94127.44
2022-11-16T14:26:38.571Z,94115.03
2022-11-16T14:29:57.435Z,94114.59
2022-11-16T14:33:00.656Z,94117.25
2022-11-16T14:36:08.996Z,94113.47
2022-11-16T14:39:31.192Z,94121.47
2022-11-16T14:42:54.715Z,94110.38
2022-11-16T14:46:08.716Z,94108.94
2022-11-16T14:49:16.316Z,94105.50
2022-11-16T14:52:28.214Z,94099.41
2022-11-16T14:55:31.345Z,94109.25
2022-11-16T14:58:35.902Z,94103.81
2022-11-16T15:01:41.145Z,94111.94
2022-11-16T15:04:44.700Z,94111.16
2022-11-16T15:07:52.607Z,94099.59
2022-11-16T15:10:55.857Z,94102.38
2022-11-16T15:13:59.532Z,94099.72
2022-11-16T15:17:02.645Z,94092.69
2022-11-16T15:20:17.470Z,94100.50
2022-11-16T15:23:24.964Z,94102.84
2022-11-16T15:26:32.518Z,94081.91
2022-11-16T15:29:35.956Z,94089.09
2022-11-16T15:32:43.463Z,94092.53
2022-11-16T15:35:47.391Z,94093.28
2022-11-16T15:38:54.718Z,94081.09
2022-11-16T15:42:03.428Z,94071.41
2022-11-16T15:45:15.508Z,94091.09
2022-11-16T15:48:21.455Z,94088.31
2022-11-16T15:51:25.095Z,94082.19
2022-11-16T15:54:31.166Z,94078.88
2022-11-16T15:57:34.290Z,94092.06
2022-11-16T16:00:38.564Z,94087.19
2022-11-16T16:03:51.893Z,94094.06
2022-11-16T16:06:57.235Z,94094.41
2022-11-16T16:10:23.385Z,94092.84
2022-11-16T16:13:31.016Z,94094.72
2022-11-16T16:16:36.347Z,94101.28
2022-11-16T16:19:42.566Z,94100.38
2022-11-16T16:22:46.264Z,94103.81
2022-11-16T16:25:50.981Z,94100.81
2022-11-16T16:28:54.093Z,94107.25
2022-11-16T16:31:57.513Z,94100.19
2022-11-16T16:35:02.404Z,94105.50
2022-11-16T16:38:14.918Z,94096.88
2022-11-16T16:41:24.455Z,94105.94
2022-11-16T16:44:27.940Z,94094.78
2022-11-16T16:47:32.451Z,94102.06
2022-11-16T16:50:36.300Z,94099.47
2022-11-16T16:53:39.440Z,94102.44
2022-11-16T16:56:44.035Z,94108.41
2022-11-16T16:59:48.701Z,94097.00
2022-11-16T17:02:53.397Z,94091.53
2022-11-16T17:06:01.216Z,94082.00
2022-11-16T17:09:04.691Z,94100.31
2022-11-16T17:12:11.304Z,94098.41
2022-11-16T17:15:19.152Z,94089.22
2022-11-16T17:18:24.457Z,94078.56
2022-11-16T17:21:28.193Z,94076.22
2022-11-16T17:24:31.396Z,94078.44
2022-11-16T17:27:36.110Z,94085.09
2022-11-16T17:30:39.528Z,94078.75
2022-11-16T17:33:45.679Z,94082.66
2022-11-16T17:36:49.030Z,94075.13
2022-11-16T17:39:52.216Z,94084.41
2022-11-16T17:42:56.816Z,94078.16
2022-11-16T17:46:04.422Z,94079.22
2022-11-16T17:49:07.923Z,94062.97
2022-11-16T17:52:12.947Z,94074.47
2022-11-16T17:55:16.643Z,94057.47
2022-11-16T17:58:23.917Z,94073.16
2022-11-16T18:01:28.733Z,94061.63
2022-11-16T18:04:31.879Z,94056.31
2022-11-16T18:07:36.322Z,94049.00
2022-11-16T18:10:39.975Z,94056.47
2022-11-16T18:13:44.848Z,94061.78
2022-11-16T18:16:48.087Z,94059.91
2022-11-16T18:19:51.191Z,94059.44
2022-11-16T18:22:54.507Z,94044.69
2022-11-16T18:25:58.696Z,94054.56
2022-11-16T18:29:03.480Z,94048.47
2022-11-16T18:32:08.369Z,94032.19
2022-11-16T18:35:11.819Z,94039.56
2022-11-16T18:38:14.945Z,94039.22
2022-11-16T18:41:22.031Z,94031.13
2022-11-16T18:44:26.539Z,94038.44
2022-11-16T18:47:29.578Z,94033.13
2022-11-16T18:50:32.682Z,94025.13
2022-11-16T18:53:36.022Z,94034.38
2022-11-16T18:56:39.570Z,94045.81
2022-11-16T18:59:44.203Z,94028.72
2022-11-16T19:02:47.302Z,94042.03
2022-11-16T19:05:58.742Z,94040.19
2022-11-16T19:09:04.004Z,94045.97
2022-11-16T19:12:07.455Z,94048.72
2022-11-16T19:15:12.428Z,94044.97
2022-11-16T19:18:21.117Z,94040.97
2022-11-16T19:21:24.881Z,94048.41
2022-11-16T19:24:27.996Z,94022.34
2022-11-16T19:27:32.230Z,94035.31
2022-11-16T19:30:36.729Z,94044.25
2022-11-16T19:33:40.616Z,94033.78
2022-11-16T19:36:43.716Z,94049.75
2022-11-16T19:39:48.129Z,94041.78
2022-11-16T19:42:53.543Z,94053.09
2022-11-16T19:46:04.032Z,94013.88
2022-11-16T19:49:08.690Z,94036.22
2022-11-16T19:52:12.304Z,94054.84
2022-11-16T19:55:15.664Z,94059.13
2022-11-16T19:58:18.814Z,94047.03
2022-11-16T20:01:25.565Z,94040.28
2022-11-16T20:04:32.871Z,94035.94
2022-11-16T20:07:38.884Z,94026.28
2022-11-16T20:10:42.011Z,94031.50
2022-11-16T20:13:45.944Z,94021.34
2022-11-16T20:16:50.927Z,94020.00
2022-11-16T20:19:54.091Z,94031.44
2022-11-16T20:22:57.671Z,94034.75
2022-11-16T20:26:00.792Z,94007.22
2022-11-16T20:29:05.734Z,94005.97
2022-11-16T20:32:10.264Z,94002.81
2022-11-16T20:35:18.816Z,93993.59
2022-11-16T20:38:22.262Z,93985.63
2022-11-16T20:41:27.334Z,93974.97
2022-11-16T20:44:32.190Z,93971.53
2022-11-16T20:47:36.646Z,93975.75
2022-11-16T20:50:40.777Z,93976.84
2022-11-16T20:53:44.461Z,93968.88
2022-11-16T20:56:54.005Z,93970.44
2022-11-16T20:59:57.151Z,93975.31
2022-11-16T21:03:01.911Z,93959.78
2022-11-16T21:06:08.497Z,93975.75
2022-11-16T21:09:13.155Z,93968.88
2022-11-16T21:12:35.107Z,93961.22
2022-11-16T21:15:40.974Z,93976.41
2022-11-16T21:18:45.535Z,93965.75
2022-11-16T21:21:48.940Z,93962.28
2022-11-16T21:24:51.966Z,93969.50
2022-11-16T21:27:57.153Z,93966.53
2022-11-16T21:31:02.316Z,93966.53
2022-11-16T21:34:07.582Z,93962.78
2022-11-16T21:37:10.910Z,93953.25
2022-11-16T21:40:14.464Z,93948.22
2022-11-16T21:43:18.856Z,93951.97
2022-11-16T21:46:24.812Z,93940.13
2022-11-16T21:49:29.580Z,93946.66
2022-11-16T21:52:32.813Z,93945.09
2022-11-16T21:55:36.232Z,93927.22
2022-11-16T21:58:40.328Z,93943.56
2022-11-16T22:01:57.238Z,93924.81
2022-11-16T22:05:19.344Z,93945.09
2022-11-16T22:08:22.869Z,93932.13
2022-11-16T22:11:26.082Z,93924.59
2022-11-16T22:14:29.197Z,93928.38
2022-11-16T22:17:32.337Z,93915.06
2022-11-16T22:20:36.949Z,93911.19
2022-11-16T22:23:40.463Z,93917.28
2022-11-16T22:26:44.614Z,93931.03
2022-11-16T22:29:47.766Z,93893.22
2022-11-16T22:32:50.884Z,93909.63
2022-11-16T22:35:56.574Z,93893.88
2022-11-16T22:38:59.587Z,93904.75
2022-11-16T22:42:02.661Z,93893.22
2022-11-16T22:45:06.510Z,93878.69
2022-11-16T22:48:09.598Z,93876.59
2022-11-16T22:51:20.496Z,93874.69
2022-11-16T22:54:28.437Z,93868.59
2022-11-16T22:57:32.097Z,93857.97
2022-11-16T23:00:41.803Z,93867.06
2022-11-16T23:03:45.426Z,93846.09
2022-11-16T23:06:50.004Z,93870.81
2022-11-16T23:09:53.177Z,93880.03
2022-11-16T23:13:14.127Z,93870.03
2022-11-16T23:16:17.273Z,93857.72
2022-11-16T23:19:39.729Z,93876.13
2022-11-16T23:23:01.440Z,93860.19
2022-11-16T23:26:30.231Z,93854.84
2022-11-16T23:29:33.608Z,93890.22
2022-11-16T23:32:36.630Z,93852.63
2022-11-16T23:35:40.126Z,93855.97
2022-11-16T23:38:45.669Z,93853.75
2022-11-16T23:42:05.985Z,93861.50
2022-11-16T23:45:09.600Z,93827.81
2022-11-16T23:48:15.312Z,93832.88
2022-11-16T23:51:19.439Z,93834.56
2022-11-16T23:54:24.040Z,93854.06
2022-11-16T23:57:27.159Z,93848.31
